Time;durP1;ratioP1;P1;durP2;ratioP2;P2;SDS_P1;SDS_P2;PMS_P1;PMS_P2;Temp;Humidity;BMP_temperature;BMP_pressure;BME280_temperature;BME280_humidity;BME280_pressure;Samples;Min_cycle;Max_cycle;Signal;HPM_P1;HPM_P2
2022/08/03 00:01:17;;;;;;;12.15;2.28;;;;;;;18.19;100.00;101586.09;5115600;27;20435;-77
2022/08/03 00:03:43;;;;;;;13.15;2.47;;;;;;;18.17;100.00;101586.28;5115584;28;20480;-77
2022/08/03 00:06:09;;;;;;;12.15;2.45;;;;;;;18.18;100.00;101584.41;5114263;28;20023;-76
2022/08/03 00:08:34;;;;;;;13.23;2.80;;;;;;;18.20;100.00;101580.53;5114253;28;20430;-77
2022/08/03 00:10:59;;;;;;;11.45;2.40;;;;;;;18.18;100.00;101582.53;5115569;28;20423;-76
2022/08/03 00:13:25;;;;;;;14.73;2.40;;;;;;;18.15;100.00;101580.19;5114296;28;20031;-82
2022/08/03 00:15:51;;;;;;;15.18;2.67;;;;;;;18.09;100.00;101578.19;5114116;28;20035;-77
2022/08/03 00:18:16;;;;;;;10.45;2.53;;;;;;;18.03;100.00;101576.19;5116050;28;20055;-77
2022/08/03 00:20:42;;;;;;;13.63;2.35;;;;;;;17.97;100.00;101570.47;5115411;28;20084;-76
2022/08/03 00:23:07;;;;;;;12.57;2.75;;;;;;;17.94;100.00;101575.34;5114306;28;20055;-76
2022/08/03 00:25:34;;;;;;;16.48;2.60;;;;;;;17.94;100.00;101569.97;5116146;28;20023;-76
2022/08/03 00:28:01;;;;;;;14.00;3.00;;;;;;;17.92;100.00;101570.13;5115979;27;20032;-75
2022/08/03 00:30:27;;;;;;;13.63;3.00;;;;;;;17.92;100.00;101561.22;5115269;28;20024;-74
2022/08/03 00:32:52;;;;;;;16.55;2.80;;;;;;;17.92;100.00;101567.44;5115619;28;20028;-78
2022/08/03 00:35:17;;;;;;;15.30;2.88;;;;;;;17.94;100.00;101564.59;5115120;28;20465;-74
2022/08/03 00:37:43;;;;;;;20.02;2.40;;;;;;;17.96;100.00;101565.28;5115435;28;20028;-75
2022/08/03 00:40:14;;;;;;;16.00;2.63;;;;;;;17.99;100.00;101570.31;5113459;28;20336;-74
2022/08/03 00:43:01;;;;;;;14.25;2.83;;;;;;;17.98;100.00;101574.00;5114869;28;20028;-75
2022/08/03 00:45:29;;;;;;;19.98;3.10;;;;;;;17.96;100.00;101565.28;5114934;28;20031;-75
2022/08/03 00:47:55;;;;;;;11.30;2.17;;;;;;;17.95;100.00;101566.28;5114537;28;20036;-75
2022/08/03 00:50:22;;;;;;;15.00;2.70;;;;;;;17.92;100.00;101562.06;5115280;28;20024;-75
2022/08/03 00:52:48;;;;;;;10.38;2.15;;;;;;;17.89;100.00;101559.72;5115199;28;20039;-75
2022/08/03 00:55:14;;;;;;;16.58;2.85;;;;;;;17.86;100.00;101557.31;5114383;28;20476;-75
2022/08/03 00:57:41;;;;;;;22.75;2.85;;;;;;;17.81;100.00;101557.00;5115216;28;20108;-75
2022/08/03 01:00:08;;;;;;;16.85;2.75;;;;;;;17.77;100.00;101556.50;5113302;28;20032;-76
2022/08/03 01:02:34;;;;;;;11.88;3.08;;;;;;;17.72;100.00;101552.63;5114426;28;20081;-76
2022/08/03 01:04:59;;;;;;;15.55;3.20;;;;;;;17.70;100.00;101547.41;5114577;28;20032;-75
2022/08/03 01:07:39;;;;;;;13.88;2.42;;;;;;;17.69;100.00;101544.88;5114029;28;20060;-75
2022/08/03 01:10:14;;;;;;;10.82;2.78;;;;;;;17.69;100.00;101558.34;5114362;27;20473;-75
2022/08/03 01:12:39;;;;;;;14.73;2.70;;;;;;;17.66;100.00;101551.47;5114253;28;20032;-75
2022/08/03 01:15:11;;;;;;;14.23;2.60;;;;;;;17.66;100.00;101543.41;5114002;28;20519;-78
2022/08/03 01:17:37;;;;;;;16.88;2.58;;;;;;;17.61;100.00;101554.63;5113036;27;20139;-77
2022/08/03 01:20:13;;;;;;;15.55;3.03;;;;;;;17.56;100.00;101546.25;5110435;28;20063;-77
2022/08/03 01:22:51;;;;;;;19.77;3.67;;;;;;;17.54;100.00;101550.97;5110512;28;20034;-77
2022/08/03 01:25:37;;;;;;;17.15;3.00;;;;;;;17.49;100.00;101547.91;5110925;28;20038;-76
2022/08/03 01:28:08;;;;;;;13.88;2.97;;;;;;;17.44;100.00;101548.41;5110654;28;20098;-76
2022/08/03 01:30:36;;;;;;;18.85;3.40;;;;;;;17.41;100.00;101548.75;5110955;28;20031;-76
2022/08/03 01:33:12;;;;;;;24.63;2.92;;;;;;;17.37;100.00;101550.09;5110830;28;20024;-76
2022/08/03 01:35:43;;;;;;;10.30;2.45;;;;;;;17.36;100.00;101550.25;5109476;28;20326;-77
2022/08/03 01:38:31;;;;;;;12.68;2.72;;;;;;;17.36;100.00;101547.56;5110774;28;20104;-76
2022/08/03 01:41:00;;;;;;;16.40;3.45;;;;;;;17.32;100.00;101541.69;5110672;28;20023;-77
2022/08/03 01:43:29;;;;;;;13.52;3.00;;;;;;;17.29;100.00;101539.34;5110838;28;20043;-75
2022/08/03 01:45:56;;;;;;;20.33;3.25;;;;;;;17.26;100.00;101540.50;5109234;28;20076;-77
2022/08/03 01:48:22;;;;;;;16.88;3.75;;;;;;;17.26;100.00;101539.66;5110941;28;20146;-77
2022/08/03 01:50:48;;;;;;;14.73;3.20;;;;;;;17.25;100.00;101540.66;5110581;28;20176;-76
2022/08/03 01:53:15;;;;;;;17.58;3.53;;;;;;;17.22;100.00;101539.16;5110694;28;20049;-77
2022/08/03 01:55:43;;;;;;;17.98;3.17;;;;;;;17.21;100.00;101542.88;5110588;28;20027;-78
2022/08/03 01:58:12;;;;;;;15.48;2.97;;;;;;;17.23;100.00;101535.47;5110483;28;20027;-76
2022/08/03 02:00:39;;;;;;;14.70;2.83;;;;;;;17.21;100.00;101532.09;5110601;28;20077;-75
2022/08/03 02:03:07;;;;;;;16.08;4.30;;;;;;;17.21;100.00;101531.25;5110545;28;20136;-78
2022/08/03 02:05:33;;;;;;;15.02;2.60;;;;;;;17.19;100.00;101530.59;5110613;28;20134;-77
2022/08/03 02:08:02;;;;;;;14.50;3.00;;;;;;;17.17;100.00;101535.28;5109877;28;20035;-77
2022/08/03 02:10:29;;;;;;;15.20;3.45;;;;;;;17.17;100.00;101525.38;5110079;28;20104;-78
2022/08/03 02:12:59;;;;;;;14.90;2.97;;;;;;;17.17;100.00;101527.22;5110136;28;20036;-78
2022/08/03 02:15:27;;;;;;;13.70;3.53;;;;;;;17.17;100.00;101538.81;5108821;28;20427;-77
2022/08/03 02:17:53;;;;;;;15.23;2.90;;;;;;;17.13;100.00;101524.00;5110384;28;20051;-76
2022/08/03 02:20:20;;;;;;;13.65;3.28;;;;;;;17.11;100.00;101523.34;5112662;28;20059;-77
2022/08/03 02:22:46;;;;;;;15.02;2.65;;;;;;;17.10;100.00;101527.03;5114384;28;20104;-77
2022/08/03 02:25:13;;;;;;;12.32;2.72;;;;;;;17.10;100.00;101525.19;5114284;28;20167;-77
2022/08/03 02:27:44;;;;;;;10.07;2.47;;;;;;;17.08;100.00;101532.56;5114264;28;20023;-78
2022/08/03 02:30:12;;;;;;;14.90;3.25;;;;;;;17.07;100.00;101524.69;5113000;28;20028;-77
2022/08/03 02:32:41;;;;;;;15.55;2.95;;;;;;;17.05;100.00;101521.31;5113008;28;20038;-77
2022/08/03 02:35:10;;;;;;;12.43;3.05;;;;;;;17.05;100.00;101524.00;5114320;28;20023;-77
2022/08/03 02:37:40;;;;;;;12.80;3.15;;;;;;;17.04;100.00;101525.00;5113944;28;20106;-77
2022/08/03 02:40:08;;;;;;;14.57;2.73;;;;;;;17.11;100.00;101526.03;5114199;28;20035;-76
2022/08/03 02:42:34;;;;;;;9.07;3.17;;;;;;;17.15;100.00;101521.97;5113780;28;20119;-76
2022/08/03 02:45:05;;;;;;;14.50;3.65;;;;;;;17.19;100.00;101517.97;5113584;28;20059;-76
2022/08/03 02:47:31;;;;;;;11.43;2.28;;;;;;;17.19;100.00;101522.50;5114198;28;20027;-75
2022/08/03 02:50:01;;;;;;;9.48;2.67;;;;;;;17.19;100.00;101517.97;5113797;28;20042;-77
2022/08/03 02:52:29;;;;;;;14.13;2.58;;;;;;;17.25;100.00;101511.09;5113880;28;20168;-78
2022/08/03 02:54:59;;;;;;;17.90;2.47;;;;;;;17.28;100.00;101519.66;5113765;28;20038;-78
2022/08/03 02:57:27;;;;;;;10.45;2.55;;;;;;;17.26;100.00;101510.09;5112444;28;20413;-76
2022/08/03 02:59:55;;;;;;;10.73;3.05;;;;;;;17.23;100.00;101510.44;5111734;28;20031;-76
2022/08/03 03:02:21;;;;;;;12.07;3.08;;;;;;;17.19;100.00;101499.16;5113302;28;20084;-75
2022/08/03 03:04:49;;;;;;;13.40;2.53;;;;;;;17.14;100.00;101508.72;5113777;28;20032;-75
2022/08/03 03:07:16;;;;;;;16.95;2.70;;;;;;;17.08;100.00;101508.38;5113488;28;20081;-79
2022/08/03 03:09:42;;;;;;;12.02;2.95;;;;;;;17.02;100.00;101510.91;5113643;28;20482;-78
2022/08/03 03:12:09;;;;;;;15.45;2.70;;;;;;;16.98;100.00;101499.63;5113498;28;20035;-77
2022/08/03 03:14:36;;;;;;;14.60;2.45;;;;;;;16.94;100.00;101506.31;5113396;28;20165;-77
2022/08/03 03:17:03;;;;;;;11.38;2.97;;;;;;;16.92;100.00;101506.50;5113438;28;20048;-77
2022/08/03 03:19:31;;;;;;;17.77;2.95;;;;;;;16.92;100.00;101511.88;5113410;28;20031;-77
2022/08/03 03:21:59;;;;;;;10.98;2.58;;;;;;;16.94;100.00;101508.19;5111977;28;20048;-77
2022/08/03 03:24:26;;;;;;;12.35;2.92;;;;;;;16.95;100.00;101510.72;5112913;28;20076;-77
2022/08/03 03:26:52;;;;;;;16.40;2.78;;;;;;;17.00;100.00;101512.91;5113000;28;20334;-77
2022/08/03 03:29:18;;;;;;;14.10;2.90;;;;;;;17.02;100.00;101517.13;5112117;28;20103;-77
2022/08/03 03:31:43;;;;;;;18.35;3.25;;;;;;;17.04;100.00;101516.94;5112591;28;20039;-76
2022/08/03 03:34:09;;;;;;;14.45;3.40;;;;;;;17.04;100.00;101514.25;5113208;27;20035;-77
2022/08/03 03:36:34;;;;;;;19.70;3.60;;;;;;;17.05;100.00;101515.94;5113138;28;20031;-77
2022/08/03 03:39:00;;;;;;;13.38;2.78;;;;;;;17.04;100.00;101519.63;5112909;28;20089;-78
2022/08/03 03:41:25;;;;;;;8.25;3.00;;;;;;;17.02;100.00;101521.66;5113244;28;20099;-78
2022/08/03 03:43:51;;;;;;;17.98;3.50;;;;;;;17.02;100.00;101521.66;5113065;28;20047;-75
2022/08/03 03:46:16;;;;;;;9.40;2.67;;;;;;;17.02;100.00;101513.59;5113090;28;20031;-76
2022/08/03 03:48:42;;;;;;;14.15;3.65;;;;;;;17.02;100.00;101514.41;5113286;28;20114;-76
2022/08/03 03:51:09;;;;;;;17.45;2.95;;;;;;;16.98;100.00;101514.91;5113123;28;20123;-76
2022/08/03 03:53:34;;;;;;;8.85;2.58;;;;;;;16.96;100.00;101522.28;5111208;28;20459;-77
2022/08/03 03:55:59;;;;;;;14.35;3.50;;;;;;;16.95;100.00;101517.94;5112928;28;20184;-77
2022/08/03 03:58:25;;;;;;;12.63;2.85;;;;;;;16.94;100.00;101514.38;5112786;28;20036;-74
2022/08/03 04:00:52;;;;;;;10.02;2.83;;;;;;;16.91;100.00;101512.03;5112727;28;20357;-77
2022/08/03 04:03:18;;;;;;;12.15;2.63;;;;;;;16.88;100.00;101512.38;5111413;28;20036;-77
2022/08/03 04:11:21;;;;;;;15.02;3.45;;;;;;;16.77;100.00;101513.50;5112878;28;20383;-76
2022/08/03 04:13:51;;;;;;;22.35;3.20;;;;;;;16.74;100.00;101511.13;5112933;28;20043;-76
2022/08/03 04:16:20;;;;;;;13.63;2.92;;;;;;;16.72;100.00;101515.84;5113061;28;20119;-77
2022/08/03 04:18:51;;;;;;;11.55;3.42;;;;;;;16.69;100.00;101517.00;5111751;28;20058;-76
2022/08/03 04:21:18;;;;;;;;;;;;;;;16.69;100.00;101517.00;5112978;28;20038;-76
2022/08/03 04:23:46;;;;;;;14.55;3.63;;;;;;;16.69;100.00;101524.19;5112175;28;20050;-75
2022/08/03 04:26:16;;;;;;;13.80;3.40;;;;;;;16.71;100.00;101525.72;5112044;28;20031;-75
2022/08/03 04:28:49;;;;;;;16.85;3.97;;;;;;;16.76;100.00;101530.59;5112092;28;20031;-75
2022/08/03 04:31:17;;;;;;;14.73;3.95;;;;;;;16.77;100.00;101526.09;5111681;28;20349;-76
2022/08/03 04:33:44;;;;;;;16.33;3.40;;;;;;;16.77;100.00;101524.22;5112084;28;20027;-76
2022/08/03 04:36:14;;;;;;;15.63;3.53;;;;;;;16.79;100.00;101524.06;5110318;28;20046;-76
2022/08/03 04:38:54;;;;;;;11.20;3.10;;;;;;;16.83;100.00;101530.81;5111734;28;20051;-76
2022/08/03 04:41:23;;;;;;;11.85;3.22;;;;;;;16.86;100.00;101531.31;5111527;28;20437;-76
2022/08/03 04:43:52;;;;;;;17.27;3.83;;;;;;;16.89;100.00;101527.50;5111508;28;20032;-77
2022/08/03 04:46:21;;;;;;;12.27;3.58;;;;;;;16.90;100.00;101530.00;5110235;28;20519;-77
2022/08/03 04:48:46;;;;;;;12.25;3.38;;;;;;;16.95;100.00;101528.69;5111318;28;20450;-77
2022/08/03 04:51:12;;;;;;;15.75;3.80;;;;;;;16.99;100.00;101532.72;5111664;28;20027;-76
2022/08/03 04:53:38;;;;;;;11.43;3.45;;;;;;;17.02;100.00;101529.72;5111645;28;20032;-77
2022/08/03 04:56:04;;;;;;;20.27;3.50;;;;;;;17.01;100.00;101533.41;5111379;28;20449;-76
2022/08/03 04:58:30;;;;;;;15.00;4.22;;;;;;;17.01;100.00;101545.00;5111462;28;20110;-77
2022/08/03 05:00:55;;;;;;;13.02;3.13;;;;;;;16.99;100.00;101546.16;5109641;28;20465;-77
2022/08/03 05:03:20;;;;;;;23.70;3.67;;;;;;;17.01;100.00;101550.38;5111118;28;20023;-80
2022/08/03 05:05:46;;;;;;;18.98;4.28;;;;;;;17.09;100.00;101550.41;5111261;28;20154;-77
2022/08/03 05:08:11;;;;;;;20.33;3.75;;;;;;;17.19;100.00;101554.78;5111322;28;20052;-77
2022/08/03 05:10:36;;;;;;;14.93;3.85;;;;;;;17.27;100.00;101555.63;5111391;28;20028;-78
2022/08/03 05:13:02;;;;;;;13.27;3.53;;;;;;;17.34;100.00;101557.66;5111039;28;20028;-76
2022/08/03 05:15:28;;;;;;;18.10;3.38;;;;;;;17.42;100.00;101558.50;5110460;28;20062;-78
2022/08/03 05:17:54;;;;;;;16.38;3.45;;;;;;;17.54;100.00;101550.97;5110151;28;20098;-76
2022/08/03 05:20:19;;;;;;;12.00;2.85;;;;;;;17.67;100.00;101555.00;5111585;28;20473;-76
2022/08/03 05:22:44;;;;;;;18.80;3.72;;;;;;;17.80;100.00;101558.00;5092435;28;20188;-76
2022/08/03 05:25:10;;;;;;;12.52;3.17;;;;;;;17.85;100.00;101561.03;5110208;27;20027;-76
2022/08/03 05:27:35;;;;;;;21.25;3.70;;;;;;;17.95;100.00;101567.09;5110301;28;20058;-76
2022/08/03 05:30:01;;;;;;;22.17;3.67;;;;;;;18.03;100.00;101560.03;5110592;28;20036;-75
2022/08/03 05:32:26;;;;;;;10.57;2.97;;;;;;;18.07;100.00;101556.00;5110793;28;20039;-77
2022/08/03 05:34:52;;;;;;;17.38;3.53;;;;;;;18.13;100.00;101558.00;5110775;28;20059;-77
2022/08/03 05:37:17;;;;;;;17.73;3.60;;;;;;;18.23;100.00;101557.81;5110641;28;20028;-77
2022/08/03 05:39:42;;;;;;;17.52;3.30;;;;;;;18.32;100.00;101568.38;5109156;28;20030;-75
2022/08/03 05:42:09;;;;;;;16.65;4.07;;;;;;;18.40;100.00;101559.44;5110479;28;20066;-74
2022/08/03 05:44:37;;;;;;;20.50;3.25;;;;;;;18.48;100.00;101561.25;5108689;28;20072;-76
2022/08/03 05:47:03;;;;;;;24.30;3.80;;;;;;;18.59;100.00;101563.59;5110351;28;20024;-74
2022/08/03 05:49:28;;;;;;;18.73;3.63;;;;;;;18.67;100.00;101557.31;5109910;28;20066;-75
2022/08/03 05:51:54;;;;;;;23.73;4.32;;;;;;;18.73;100.00;101561.16;5110208;28;20118;-75
2022/08/03 05:54:19;;;;;;;15.88;3.28;;;;;;;18.80;100.00;101562.16;5110128;28;20036;-75
2022/08/03 05:56:44;;;;;;;21.10;4.22;;;;;;;18.87;100.00;101563.16;5110355;28;20039;-75
2022/08/03 05:59:10;;;;;;;16.85;3.42;;;;;;;18.91;100.00;101559.06;5109921;28;20081;-76
2022/08/03 06:01:35;;;;;;;17.08;3.65;;;;;;;18.93;100.00;101558.91;5108839;28;20126;-75
2022/08/03 06:04:00;;;;;;;16.27;3.80;;;;;;;18.99;100.00;101552.81;5110548;28;20203;-74
2022/08/03 06:06:26;;;;;;;17.40;4.32;;;;;;;19.07;100.00;101550.06;5109987;28;20116;-75
2022/08/03 06:08:51;;;;;;;26.42;4.53;;;;;;;19.13;100.00;101551.22;5091860;28;20185;-73
2022/08/03 06:11:16;;;;;;;17.38;3.88;;;;;;;19.17;100.00;101550.69;5109981;28;20100;-73
2022/08/03 06:13:42;;;;;;;17.20;4.00;;;;;;;19.19;100.00;101554.03;5108117;28;20217;-72
2022/08/03 06:16:08;;;;;;;21.05;4.80;;;;;;;19.16;100.00;101556.25;5109938;28;20052;-74
2022/08/03 06:18:34;;;;;;;19.33;4.93;;;;;;;19.15;100.00;101558.13;5109398;28;20074;-73
2022/08/03 06:21:00;;;;;;;21.95;5.60;;;;;;;19.14;100.00;101555.59;5109820;28;20036;-72
2022/08/03 06:23:26;;;;;;;15.63;4.88;;;;;;;19.21;100.00;101561.94;5109725;28;20040;-77
2022/08/03 06:25:51;;;;;;;21.15;5.05;;;;;;;19.30;100.00;101563.59;5109968;28;20111;-76
2022/08/03 06:28:17;;;;;;;22.23;5.50;;;;;;;19.37;100.00;101569.09;5110104;28;20157;-77
2022/08/03 06:30:43;;;;;;;18.63;5.43;;;;;;;19.52;100.00;101566.44;5109662;28;20032;-76
2022/08/03 06:33:09;;;;;;;18.00;5.70;;;;;;;19.65;100.00;101572.06;5109426;28;20115;-74
2022/08/03 06:35:34;;;;;;;20.98;6.03;;;;;;;19.77;100.00;101567.09;5109612;28;20062;-74
2022/08/03 06:38:00;;;;;;;19.25;6.10;;;;;;;19.90;100.00;101561.09;5109339;28;20103;-75
2022/08/03 06:40:30;;;;;;;26.50;7.05;;;;;;;20.01;100.00;101567.91;5109137;28;20063;-76
2022/08/03 06:42:59;;;;;;;20.55;6.88;;;;;;;20.08;100.00;101572.41;5109622;28;20027;-75
2022/08/03 06:45:25;;;;;;;18.15;6.72;;;;;;;20.15;99.16;101575.19;5109403;28;20063;-75
2022/08/03 06:48:02;;;;;;;24.13;7.53;;;;;;;20.16;98.59;101573.34;5109617;28;20112;-75
2022/08/03 06:50:28;;;;;;;32.40;8.43;;;;;;;20.21;98.37;101566.38;5109445;28;20134;-79
2022/08/03 06:52:53;;;;;;;27.38;7.80;;;;;;;20.15;97.27;101574.34;5109446;28;20126;-75
2022/08/03 06:55:18;;;;;;;20.23;6.90;;;;;;;20.10;98.04;101569.50;5109579;28;20197;-76
2022/08/03 06:57:44;;;;;;;21.90;7.72;;;;;;;20.20;98.89;101566.56;5109111;28;20043;-74
2022/08/03 07:00:10;;;;;;;24.13;6.60;;;;;;;20.30;97.38;101577.91;5109824;28;20028;-76
2022/08/03 07:02:36;;;;;;;24.70;7.32;;;;;;;20.35;96.68;101582.78;5109600;28;20027;-75
2022/08/03 07:05:01;;;;;;;24.40;6.57;;;;;;;20.45;96.92;101572.50;5109803;28;20050;-75
2022/08/03 07:07:26;;;;;;;25.25;7.13;;;;;;;20.55;96.25;101583.03;5112974;28;20441;-75
2022/08/03 07:09:52;;;;;;;19.70;6.07;;;;;;;20.70;96.81;101577.66;5112458;28;20046;-76
2022/08/03 07:12:17;;;;;;;21.75;6.07;;;;;;;20.83;94.92;101583.22;5112041;28;20039;-73
2022/08/03 07:14:43;;;;;;;24.60;5.85;;;;;;;20.93;93.89;101588.34;5113623;28;20413;-72
2022/08/03 07:17:08;;;;;;;22.55;5.90;;;;;;;21.04;93.71;101595.13;5113322;28;20055;-72
2022/08/03 07:19:33;;;;;;;17.10;5.90;;;;;;;21.11;92.10;101586.06;5113587;28;20118;-74
2022/08/03 07:21:59;;;;;;;21.77;6.00;;;;;;;21.19;90.65;101604.03;5113858;28;20039;-75
2022/08/03 07:24:24;;;;;;;18.02;6.18;;;;;;;21.29;91.19;101592.91;5113698;28;20102;-79
2022/08/03 07:26:50;;;;;;;21.63;5.82;;;;;;;21.44;90.49;101611.81;5113875;28;20028;-75
2022/08/03 07:29:15;;;;;;;20.58;5.38;;;;;;;21.59;89.99;101601.78;5113545;28;20169;-75
2022/08/03 07:31:41;;;;;;;13.88;5.50;;;;;;;21.78;87.25;101605.72;5112830;28;20034;-74
2022/08/03 07:34:06;;;;;;;16.42;5.45;;;;;;;21.79;86.53;101603.81;5113078;28;20122;-73
2022/08/03 07:36:32;;;;;;;22.27;5.72;;;;;;;21.86;86.33;101612.03;5113286;28;20325;-74
2022/08/03 07:38:57;;;;;;;16.55;4.43;;;;;;;21.90;87.03;101602.44;5113042;28;20143;-74
2022/08/03 07:41:23;;;;;;;19.90;5.15;;;;;;;21.84;86.61;101609.50;5113069;28;20058;-74
2022/08/03 07:43:48;;;;;;;18.08;5.35;;;;;;;21.99;86.00;101604.00;5111769;28;20042;-74
2022/08/03 07:46:13;;;;;;;15.45;4.80;;;;;;;22.16;84.63;101618.91;5113094;28;20135;-73
2022/08/03 07:48:39;;;;;;;19.60;5.50;;;;;;;22.28;83.18;101613.78;5112775;28;20032;-75
2022/08/03 07:51:04;;;;;;;18.52;5.93;;;;;;;22.37;82.17;101614.50;5112762;28;20035;-75
2022/08/03 07:53:30;;;;;;;20.02;5.75;;;;;;;22.52;83.21;101627.94;5112661;28;20028;-76
2022/08/03 07:55:56;;;;;;;16.85;5.38;;;;;;;22.63;81.22;101616.56;5113097;28;20121;-74
2022/08/03 07:58:22;;;;;;;24.55;5.82;;;;;;;22.76;81.56;101623.06;5112904;28;20426;-72
2022/08/03 08:00:49;;;;;;;19.77;5.32;;;;;;;22.78;80.23;101619.13;5112732;28;20130;-73
2022/08/03 08:03:15;;;;;;;19.83;5.65;;;;;;;22.75;79.80;101621.41;5112921;28;20122;-74
2022/08/03 08:05:40;;;;;;;17.00;5.50;;;;;;;22.72;80.14;101622.63;5112759;28;20141;-74
2022/08/03 08:08:06;;;;;;;16.92;5.90;;;;;;;22.60;80.23;101618.81;5118974;28;20124;-73
2022/08/03 08:10:32;;;;;;;22.38;6.00;;;;;;;22.65;78.91;101609.03;5114743;28;20058;-74
2022/08/03 08:12:57;;;;;;;18.23;5.05;;;;;;;22.61;79.86;101610.47;5115316;28;20465;-72
2022/08/03 08:15:23;;;;;;;16.73;6.03;;;;;;;22.66;80.67;101602.59;5114991;27;20104;-76
2022/08/03 08:17:56;;;;;;;20.70;5.45;;;;;;;22.84;80.16;101606.63;5114106;28;20048;-75
2022/08/03 08:20:24;;;;;;;19.13;5.03;;;;;;;23.01;80.32;101612.53;5115122;28;20035;-77
2022/08/03 08:22:50;;;;;;;19.27;5.60;;;;;;;23.26;77.80;101614.72;5115475;28;20023;-74
2022/08/03 08:25:15;;;;;;;15.10;5.60;;;;;;;23.47;76.94;101609.16;5114209;28;20130;-74
2022/08/03 08:27:46;;;;;;;16.23;5.70;;;;;;;23.74;75.62;101615.44;5115115;28;20040;-76
2022/08/03 08:30:13;;;;;;;18.30;5.28;;;;;;;23.73;74.60;101611.03;5115215;28;20457;-76
2022/08/03 08:32:38;;;;;;;15.18;4.72;;;;;;;23.51;74.48;101602.28;5115418;27;20058;-77
2022/08/03 08:35:05;;;;;;;17.40;5.20;;;;;;;23.87;73.62;101608.38;5114883;28;20461;-76
2022/08/03 08:37:31;;;;;;;13.98;5.57;;;;;;;24.17;73.96;101613.38;5114827;28;20040;-76
2022/08/03 08:39:57;;;;;;;19.95;4.80;;;;;;;24.59;73.09;101603.91;5114762;28;20023;-74
2022/08/03 08:42:23;;;;;;;15.85;4.65;;;;;;;24.94;70.14;101617.16;5115381;28;20484;-75
2022/08/03 08:44:48;;;;;;;19.02;5.35;;;;;;;25.13;69.05;101604.50;5113460;28;20032;-75
2022/08/03 08:47:14;;;;;;;22.20;5.35;;;;;;;25.42;66.56;101604.16;5115322;28;20043;-77
2022/08/03 08:49:40;;;;;;;18.20;4.60;;;;;;;25.63;66.62;101614.72;5114456;28;20526;-76
2022/08/03 08:52:08;;;;;;;23.52;4.93;;;;;;;26.10;61.43;101621.69;5113324;28;20089;-75
2022/08/03 08:54:35;;;;;;;14.77;3.85;;;;;;;26.22;61.14;101618.00;5114801;28;20373;-74
2022/08/03 08:57:02;;;;;;;15.73;4.20;;;;;;;25.93;61.51;101619.50;5114345;28;20026;-75
2022/08/03 08:59:32;;;;;;;20.90;3.95;;;;;;;25.86;63.28;101622.28;5114536;28;20031;-75
2022/08/03 09:01:57;;;;;;;21.35;3.78;;;;;;;25.82;63.70;101622.94;5114244;28;20023;-76
2022/08/03 09:04:23;;;;;;;17.40;3.70;;;;;;;26.01;61.33;101632.06;5113330;28;20032;-76
2022/08/03 09:06:49;;;;;;;21.95;4.13;;;;;;;25.47;62.68;101637.03;5114489;28;20052;-75
2022/08/03 09:09:15;;;;;;;18.52;3.92;;;;;;;25.49;64.77;101640.38;5114407;28;20031;-75
2022/08/03 09:11:43;;;;;;;15.73;4.32;;;;;;;25.61;64.85;101643.22;5095867;28;20475;-75
2022/08/03 09:14:09;;;;;;;20.83;4.10;;;;;;;26.47;61.44;101640.81;5114117;28;20126;-74
2022/08/03 09:16:35;;;;;;;17.38;4.05;;;;;;;26.77;58.02;101640.09;5114081;28;20067;-76
2022/08/03 09:19:12;;;;;;;14.70;3.25;;;;;;;26.62;58.98;101637.72;5113610;28;20071;-75
2022/08/03 09:21:38;;;;;;;22.42;3.33;;;;;;;27.29;56.77;101643.25;5114717;28;20023;-75
2022/08/03 09:24:05;;;;;;;21.20;3.80;;;;;;;27.89;54.44;101636.88;5114413;28;20027;-76
2022/08/03 09:26:33;;;;;;;18.30;3.75;;;;;;;28.92;51.78;101638.41;5112537;28;20035;-75
2022/08/03 09:29:08;;;;;;;22.00;3.63;;;;;;;30.19;46.29;101633.53;5113780;28;20038;-78
2022/08/03 09:31:39;;;;;;;19.35;3.70;;;;;;;31.16;45.87;101637.81;5114179;28;20046;-74
2022/08/03 09:34:07;;;;;;;20.60;4.00;;;;;;;31.96;44.79;101632.50;5112569;28;20123;-75
2022/08/03 09:36:36;;;;;;;20.58;4.22;;;;;;;32.07;42.86;101623.25;5114277;28;20384;-74
2022/08/03 09:39:05;;;;;;;15.25;3.80;;;;;;;32.57;40.73;101623.81;5113573;28;20442;-74
2022/08/03 09:41:32;;;;;;;21.02;3.97;;;;;;;32.92;39.70;101632.50;5114123;28;20028;-75
2022/08/03 09:43:57;;;;;;;18.15;3.55;;;;;;;32.66;40.28;101615.88;5113632;28;20054;-74
2022/08/03 09:46:22;;;;;;;17.08;3.95;;;;;;;32.59;41.21;101632.66;5112381;28;20027;-77
2022/08/03 09:48:48;;;;;;;19.88;3.92;;;;;;;32.25;41.71;101621.19;5113557;28;20440;-73
2022/08/03 09:51:17;;;;;;;27.25;4.25;;;;;;;32.15;41.24;101624.69;5113347;28;20036;-77
2022/08/03 09:53:44;;;;;;;13.20;3.30;;;;;;;32.22;41.22;101624.44;5113511;28;20040;-75
2022/08/03 09:56:09;;;;;;;18.05;3.78;;;;;;;32.32;39.95;101621.75;5113550;28;20042;-75
2022/08/03 09:58:45;;;;;;;16.02;4.22;;;;;;;31.85;40.87;101623.38;5113480;28;20028;-74
2022/08/03 10:01:10;;;;;;;16.13;3.53;;;;;;;32.57;39.40;101628.50;5114162;28;20032;-74
2022/08/03 10:03:39;;;;;;;13.35;2.95;;;;;;;32.20;40.71;101627.47;5112250;28;20034;-74
2022/08/03 10:06:15;;;;;;;18.73;3.47;;;;;;;32.22;42.02;101628.03;5114027;28;20106;-74
2022/08/03 10:08:40;;;;;;;20.35;3.97;;;;;;;32.31;39.98;101622.88;5114052;28;20039;-74
2022/08/03 10:11:05;;;;;;;19.80;3.58;;;;;;;32.31;40.68;101631.94;5114083;28;20047;-74
2022/08/03 10:13:32;;;;;;;16.15;3.60;;;;;;;32.78;39.41;101633.00;5113605;28;20027;-74
2022/08/03 10:15:57;;;;;;;18.33;3.63;;;;;;;32.55;39.99;101628.78;5112494;28;20028;-74
2022/08/03 10:18:22;;;;;;;21.05;3.83;;;;;;;32.86;40.10;101635.25;5112805;28;20120;-74
2022/08/03 10:20:55;;;;;;;19.52;3.50;;;;;;;33.41;38.41;101632.06;5113234;28;20047;-74
2022/08/03 10:23:21;;;;;;;14.65;2.95;;;;;;;33.61;38.51;101625.75;5113182;28;20035;-75
2022/08/03 10:25:49;;;;;;;22.30;3.30;;;;;;;33.74;38.79;101622.47;5113950;28;20131;-73
2022/08/03 10:28:18;;;;;;;16.73;3.42;;;;;;;33.78;37.96;101625.50;5113156;28;20133;-75
2022/08/03 10:30:49;;;;;;;12.05;2.95;;;;;;;34.15;36.54;101624.34;5113115;28;20088;-74
2022/08/03 10:33:26;;;;;;;19.58;3.65;;;;;;;33.77;38.24;101614.75;5113517;28;20126;-73
2022/08/03 10:35:55;;;;;;;22.55;4.20;;;;;;;33.48;38.67;101616.09;5113695;28;20031;-75
2022/08/03 10:38:27;;;;;;;14.80;3.47;;;;;;;33.90;39.25;101616.94;5112846;28;20063;-72
2022/08/03 10:40:54;;;;;;;16.42;3.22;;;;;;;34.08;37.85;101610.84;5114996;28;20031;-73
2022/08/03 10:43:24;;;;;;;16.23;3.53;;;;;;;34.25;38.14;101621.59;5117066;27;20039;-74
2022/08/03 10:45:51;;;;;;;15.43;3.70;;;;;;;34.30;36.96;101614.41;5117325;28;20384;-81
2022/08/03 10:48:17;;;;;;;14.73;3.90;;;;;;;34.00;37.55;101624.38;5117105;28;20031;-73
2022/08/03 10:50:44;;;;;;;18.38;3.80;;;;;;;33.68;38.09;101625.47;5116876;27;20043;-75
2022/08/03 10:53:09;;;;;;;17.63;3.53;;;;;;;33.74;37.74;101618.91;5116897;28;20027;-75
2022/08/03 10:58:35;;;;;;;14.88;3.40;;;;;;;33.87;36.45;101612.78;5115813;28;20090;-74
2022/08/03 11:01:02;;;;;;;16.65;3.80;;;;;;;33.39;37.78;101626.84;5116702;28;20031;-74
2022/08/03 11:03:27;;;;;;;14.80;3.30;;;;;;;33.15;39.56;101606.38;5117064;27;20035;-73
2022/08/03 11:06:19;;;;;;;19.17;3.90;;;;;;;33.59;39.21;101600.41;5116438;28;20085;-76
2022/08/03 11:08:49;;;;;;;13.75;2.88;;;;;;;33.78;35.38;101608.94;5116936;28;20542;-73
2022/08/03 11:11:17;;;;;;;16.52;3.35;;;;;;;33.62;34.79;101610.03;5117092;28;20036;-75
2022/08/03 11:14:12;;;;;;;15.30;3.00;;;;;;;33.86;34.84;101602.03;5116530;28;20024;-74
2022/08/03 11:16:40;;;;;;;15.52;3.08;;;;;;;33.83;35.20;101597.91;5116439;28;20023;-74
2022/08/03 11:19:11;;;;;;;13.95;2.95;;;;;;;33.57;35.26;101613.63;5116283;28;20042;-74
2022/08/03 11:24:35;;;;;;;15.25;2.90;;;;;;;33.20;35.89;101600.91;5116321;27;20268;-73